Time;durP1;ratioP1;P1;durP2;ratioP2;P2;SDS_P1;SDS_P2;PMS_P1;PMS_P2;Temp;Humidity;BMP_temperature;BMP_pressure;BME280_temperature;BME280_humidity;BME280_pressure;Samples;Min_cycle;Max_cycle;Signal;HPM_P1;HPM_P2
2021/08/21 00:00:09;;;;;;;2.27;1.20;;;16.40;48.40;;;;;;4810213;28;20646;-74
2021/08/21 00:02:35;;;;;;;1.50;0.80;;;;;;;;;;4829929;28;20242;-74
2021/08/21 00:04:58;;;;;;;3.20;1.50;;;;;;;;;;4812533;28;20948;-73
2021/08/21 00:07:20;;;;;;;2.23;0.90;;;;;;;;;;4809293;28;20279;-73
2021/08/21 00:09:45;;;;;;;5.60;1.50;;;;;;;;;;4828093;28;20195;-74
2021/08/21 00:12:08;;;;;;;2.90;0.70;;;15.80;47.80;;;;;;4827919;28;20289;-72
2021/08/21 00:14:31;;;;;;;3.13;1.00;;;;;;;;;;4826848;28;20242;-73
2021/08/21 00:16:55;;;;;;;6.87;1.93;;;15.60;47.40;;;;;;4828067;28;20215;-73
2021/08/21 00:19:18;;;;;;;3.87;1.17;;;;;;;;;;4794244;28;20232;-74
2021/08/21 00:21:41;;;;;;;2.53;0.87;;;;;;;;;;4815722;28;20228;-74
2021/08/21 00:24:03;;;;;;;5.33;1.53;;;;;;;;;;4807334;28;20195;-74
2021/08/21 00:26:26;;;;;;;3.83;1.00;;;;;;;;;;4804929;28;20646;-73
2021/08/21 00:28:49;;;;;;;2.53;0.77;;;;;;;;;;4809492;28;20188;-75
2021/08/21 00:31:12;;;;;;;2.17;0.73;;;;;;;;;;4812470;28;20199;-78
2021/08/21 00:33:36;;;;;;;2.43;0.83;;;15.30;46.90;;;;;;4829301;28;20715;-77
2021/08/21 00:36:00;;;;;;;3.57;1.10;;;;;;;;;;4815006;28;20215;-72
2021/08/21 00:38:23;;;;;;;3.30;1.13;;;;;;;;;;4834327;28;20233;-74
2021/08/21 00:40:46;;;;;;;4.47;1.40;;;;;;;;;;4825037;28;20191;-73
2021/08/21 00:43:08;;;;;;;2.30;0.70;;;;;;;;;;4811944;28;20639;-73
2021/08/21 00:45:31;;;;;;;3.03;0.97;;;;;;;;;;4810646;28;20243;-73
2021/08/21 00:47:55;;;;;;;5.60;1.60;;;;;;;;;;4805049;28;20199;-75
2021/08/21 00:50:19;;;;;;;2.57;0.83;;;15.10;45.70;;;;;;4822960;28;20242;-73
2021/08/21 00:52:42;;;;;;;2.40;0.80;;;;;;;;;;4815177;28;20255;-77
2021/08/21 00:55:06;;;;;;;5.10;1.43;;;14.90;45.90;;;;;;4808244;28;20246;-74
2021/08/21 00:57:29;;;;;;;2.27;0.80;;;;;;;;;;4802598;28;20289;-76
2021/08/21 00:59:53;;;;;;;5.33;1.80;;;;;;;;;;4795966;28;20200;-75
2021/08/21 01:02:16;;;;;;;3.63;1.37;;;14.60;45.30;;;;;;4814900;28;20223;-74
2021/08/21 01:04:40;;;;;;;2.13;0.77;;;14.60;45.20;;;;;;4826029;28;20246;-75
2021/08/21 01:07:05;;;;;;;3.80;1.33;;;15.00;44.50;;;;;;4816223;28;20199;-74
2021/08/21 01:09:28;;;;;;;3.50;0.93;;;;;;;;;;4805392;28;20757;-73
2021/08/21 01:11:51;;;;;;;3.80;1.33;;;;;;;;;;4809543;28;20214;-73
2021/08/21 01:14:14;;;;;;;2.67;0.83;;;;;;;;;;4809129;28;20669;-74
2021/08/21 01:16:38;;;;;;;2.40;0.80;;;;;;;;;;4808421;28;20235;-73
2021/08/21 01:19:02;;;;;;;4.77;1.63;;;;;;;;;;4806162;28;20231;-73
2021/08/21 01:21:25;;;;;;;5.13;1.67;;;;;;;;;;4814053;28;20219;-73
2021/08/21 01:23:49;;;;;;;4.23;1.30;;;13.80;44.10;;;;;;4809937;28;20208;-73
2021/08/21 01:26:20;;;;;;;2.73;0.90;;;;;;;;;;4803744;28;20259;-73
2021/08/21 01:29:00;;;;;;;2.53;0.90;;;13.70;43.70;;;;;;4806934;28;20276;-73
2021/08/21 01:31:38;;;;;;;3.03;0.90;;;13.60;43.50;;;;;;4807684;28;20204;-75
2021/08/21 01:34:00;;;;;;;5.53;1.83;;;13.50;43.50;;;;;;4808639;28;20250;-73
2021/08/21 01:36:23;;;;;;;2.43;0.83;;;13.60;42.60;;;;;;4807503;28;20714;-74
2021/08/21 01:39:04;;;;;;;4.00;1.43;;;;;;;;;;4808109;28;20227;-75
2021/08/21 01:41:44;;;;;;;1.87;0.80;;;13.40;43.00;;;;;;4800226;28;20207;-74
2021/08/21 01:44:11;;;;;;;1.20;0.50;;;13.30;42.80;;;;;;4806965;28;20226;-75
2021/08/21 01:46:34;;;;;;;2.67;1.00;;;;;;;;;;4800361;28;20250;-76
2021/08/21 01:49:00;;;;;;;4.30;1.37;;;13.20;42.70;;;;;;4808999;28;20235;-77
2021/08/21 01:51:23;;;;;;;4.40;1.20;;;;;;;;;;4808188;28;20199;-75
2021/08/21 01:53:46;;;;;;;3.00;1.10;;;;;;;;;;4803896;28;20199;-75
2021/08/21 01:56:09;;;;;;;1.70;0.80;;;13.00;42.20;;;;;;4802236;28;20913;-74
2021/08/21 01:58:53;;;;;;;8.67;1.73;;;;;;;;;;4809906;28;20565;-76
2021/08/21 02:01:32;;;;;;;5.37;1.07;;;12.60;41.00;;;;;;4795192;28;20211;-75
2021/08/21 02:04:15;;;;;;;5.63;1.10;;;;;;;;;;4806026;28;20629;-76
2021/08/21 02:06:38;;;;;;;6.43;1.57;;;;;;;;;;4805232;28;21117;-79
2021/08/21 02:09:02;;;;;;;7.53;1.73;;;;;;;;;;4811108;28;20227;-75
2021/08/21 02:11:25;;;;;;;5.00;1.30;;;;;;;;;;4807952;28;20224;-75
2021/08/21 02:13:48;;;;;;;2.73;0.70;;;;;;;;;;4805137;28;20191;-76
2021/08/21 02:16:10;;;;;;;2.43;0.67;;;;;;;;;;4813033;28;20203;-75
2021/08/21 02:18:35;;;;;;;4.40;1.10;;;12.60;40.10;;;;;;4802520;28;20256;-75
2021/08/21 02:21:08;;;;;;;4.37;0.87;;;;;;;;;;4813919;28;20221;-75
2021/08/21 02:23:31;;;;;;;7.43;1.30;;;;;;;;;;4809015;28;20207;-75
2021/08/21 02:25:57;;;;;;;20.27;2.67;;;;;;;;;;4803035;28;20224;-75
2021/08/21 02:28:28;;;;;;;16.33;2.63;;;;;;;;;;4809954;28;20241;-75
2021/08/21 02:30:51;;;;;;;17.23;2.27;;;;;;;;;;4813770;28;20203;-75
2021/08/21 02:33:15;;;;;;;11.70;1.70;;;;;;;;;;4810905;28;20196;-75
2021/08/21 02:35:40;;;;;;;9.67;1.43;;;12.30;39.30;;;;;;4805839;28;20206;-77
2021/08/21 02:38:04;;;;;;;22.93;3.13;;;12.20;39.60;;;;;;4785625;28;20220;-75
2021/08/21 02:40:27;;;;;;;8.30;1.27;;;;;;;;;;4808245;28;20251;-77
2021/08/21 02:42:50;;;;;;;5.97;1.00;;;;;;;;;;4807857;28;20203;-76
2021/08/21 02:45:14;;;;;;;7.43;1.13;;;;;;;;;;4810056;28;20540;-75
2021/08/21 02:47:36;;;;;;;13.60;1.93;;;;;;;;;;4807719;28;20199;-76
2021/08/21 02:49:59;;;;;;;21.63;2.90;;;;;;;;;;4787815;28;20295;-74
2021/08/21 02:52:23;;;;;;;9.53;1.47;;;12.00;38.90;;;;;;4806974;28;20200;-75
2021/08/21 02:54:46;;;;;;;8.13;1.30;;;;;;;;;;4811609;28;20796;-75
2021/08/21 02:57:10;;;;;;;4.23;0.73;;;;;;;;;;4805911;28;20278;-75
2021/08/21 02:59:35;;;;;;;12.17;1.90;;;;;;;;;;4789483;28;20246;-77
2021/08/21 03:02:00;;;;;;;13.30;2.03;;;;;;;;;;4798931;28;20191;-75
2021/08/21 03:04:24;;;;;;;9.13;1.43;;;;;;;;;;4804775;28;20231;-75
2021/08/21 03:06:49;;;;;;;6.87;1.10;;;;;;;;;;4791646;28;20200;-74
2021/08/21 03:09:33;;;;;;;7.50;1.30;;;11.90;37.80;;;;;;4810179;28;20187;-75
2021/08/21 03:11:56;;;;;;;16.67;2.17;;;;;;;;;;4800046;28;20689;-75
2021/08/21 03:14:24;;;;;;;10.27;1.47;;;;;;;;;;4804760;28;20200;-75
2021/08/21 03:16:47;;;;;;;8.33;1.23;;;;;;;;;;4811516;28;20255;-75
2021/08/21 03:19:10;;;;;;;4.90;0.93;;;;;;;;;;4812391;28;20199;-75
2021/08/21 03:21:34;;;;;;;8.57;1.40;;;;;;;;;;4807215;28;20294;-75
2021/08/21 03:23:58;;;;;;;11.60;1.80;;;;;;;;;;4808128;28;20196;-75
2021/08/21 03:26:23;;;;;;;10.90;1.50;;;11.60;37.30;;;;;;4806256;28;20199;-75
2021/08/21 03:28:48;;;;;;;8.33;1.20;;;;;;;;;;4793655;28;20197;-75
2021/08/21 03:31:11;;;;;;;5.57;0.87;;;;;;;;;;4801818;28;20200;-75
2021/08/21 03:33:34;;;;;;;10.17;1.57;;;;;;;;;;4812080;28;20211;-75
2021/08/21 03:35:58;;;;;;;14.20;2.10;;;;;;;;;;4809598;28;20199;-75
2021/08/21 03:38:22;;;;;;;12.43;2.00;;;;;;;;;;4804902;28;20278;-74
2021/08/21 03:40:54;;;;;;;12.63;2.00;;;;;;;;;;4790958;28;20671;-75
2021/08/21 03:43:18;;;;;;;7.37;1.23;;;11.50;36.00;;;;;;4816215;28;20604;-77
2021/08/21 03:45:41;;;;;;;6.80;1.20;;;;;;;;;;4811187;28;20195;-75
2021/08/21 03:48:06;;;;;;;11.87;1.97;;;;;;;;;;4805409;28;20235;-75
2021/08/21 03:50:29;;;;;;;6.33;1.07;;;;;;;;;;4790900;28;20279;-75
2021/08/21 03:52:52;;;;;;;15.20;2.37;;;;;;;;;;4799945;28;20192;-74
2021/08/21 03:55:15;;;;;;;5.37;1.00;;;;;;;;;;4828083;28;20257;-74
2021/08/21 03:57:39;;;;;;;7.00;1.33;;;;;;;;;;4826428;28;20226;-74
2021/08/21 04:00:04;;;;;;;8.30;1.70;;;11.50;35.40;;;;;;4811695;28;20295;-74
2021/08/21 04:02:28;;;;;;;3.90;0.90;;;11.40;35.30;;;;;;4808566;28;20222;-74
2021/08/21 04:04:52;;;;;;;9.73;1.87;;;;;;;;;;4803802;28;20200;-74
2021/08/21 04:07:16;;;;;;;4.90;1.00;;;11.40;35.00;;;;;;4809119;28;20259;-74
2021/08/21 04:09:40;;;;;;;4.57;1.00;;;;;;;;;;4796124;28;20559;-75
2021/08/21 04:12:02;;;;;;;9.63;1.87;;;11.40;33.60;;;;;;4790386;28;20223;-75
2021/08/21 04:14:32;;;;;;;10.10;1.83;;;;;;;;;;4808365;28;20199;-75
2021/08/21 04:16:57;;;;;;;11.27;2.10;;;11.60;34.30;;;;;;4808826;28;20196;-74
2021/08/21 04:19:20;;;;;;;6.17;1.30;;;;;;;;;;4809751;28;20285;-74
2021/08/21 04:21:45;;;;;;;6.37;1.30;;;;;;;;;;4792202;28;20212;-76
2021/08/21 04:24:25;;;;;;;6.30;1.30;;;;;;;;;;4798533;28;20199;-74
2021/08/21 04:26:54;;;;;;;10.30;2.17;;;;;;;;;;4794356;28;20188;-75
2021/08/21 04:29:18;;;;;;;6.73;1.17;;;;;;;;;;4809639;28;20987;-74
2021/08/21 04:31:41;;;;;;;7.37;1.27;;;;;;;;;;4794409;28;20247;-75
2021/08/21 04:34:06;;;;;;;10.93;1.83;;;12.60;32.30;;;;;;4795439;28;20782;-74
2021/08/21 04:36:29;;;;;;;6.33;1.10;;;;;;;;;;4800598;28;20316;-75
2021/08/21 04:38:52;;;;;;;9.77;1.73;;;;;;;;;;4810345;28;20223;-74
2021/08/21 04:41:16;;;;;;;9.67;1.70;;;;;;;;;;4803867;28;20670;-80
2021/08/21 04:43:40;;;;;;;6.80;1.17;;;;;;;;;;4809701;28;20276;-77
2021/08/21 04:46:05;;;;;;;13.57;2.37;;;;;;;;;;4801330;28;20670;-75
2021/08/21 04:48:29;;;;;;;6.47;1.20;;;;;;;;;;4813868;28;20270;-74
2021/08/21 04:50:54;;;;;;;12.73;2.07;;;13.50;32.60;;;;;;4793743;28;20194;-78
2021/08/21 04:53:17;;;;;;;6.00;1.00;;;;;;;;;;4790093;28;20197;-77
2021/08/21 04:55:42;;;;;;;9.63;1.57;;;;;;;;;;4808511;28;20200;-75
2021/08/21 04:58:05;;;;;;;11.97;1.70;;;;;;;;;;4810849;28;20287;-78
2021/08/21 05:00:29;;;;;;;45.27;6.40;;;;;;;;;;4783176;28;20196;-75
2021/08/21 05:03:16;;;;;;;6.93;1.10;;;;;;;;;;4808889;28;20285;-76
2021/08/21 05:05:39;;;;;;;7.10;1.20;;;;;;;;;;4789018;28;20271;-75
2021/08/21 05:08:05;;;;;;;17.33;2.53;;;14.40;35.80;;;;;;4798046;28;20212;-75
2021/08/21 05:10:29;;;;;;;3.60;0.60;;;;;;;;;;4814646;28;20286;-75
2021/08/21 05:12:52;;;;;;;13.47;2.03;;;;;;;;;;4796357;28;20597;-77
2021/08/21 05:15:17;;;;;;;9.00;1.30;;;;;;;;;;4812023;28;20266;-75
2021/08/21 05:17:52;;;;;;;9.37;1.23;;;;;;;;;;4811569;28;20226;-75
2021/08/21 05:20:31;;;;;;;15.50;2.07;;;;;;;;;;4812914;28;20259;-78
2021/08/21 05:23:06;;;;;;;19.77;2.50;;;15.20;38.90;;;;;;4805441;28;20611;-75
2021/08/21 05:25:29;;;;;;;11.30;1.53;;;;;;;;;;4807497;28;20203;-76
2021/08/21 05:27:52;;;;;;;22.33;2.77;;;;;;;;;;4801944;28;20203;-76
2021/08/21 05:30:17;;;;;;;9.93;1.27;;;15.50;39.70;;;;;;4807767;28;20226;-83
2021/08/21 05:32:40;;;;;;;11.13;1.53;;;;;;;;;;4815641;28;20212;-79
2021/08/21 05:35:03;;;;;;;19.97;2.50;;;;;;;;;;4816333;28;20214;-77
2021/08/21 05:37:26;;;;;;;14.07;1.83;;;;;;;;;;4814749;28;20261;-75
2021/08/21 05:39:50;;;;;;;12.47;1.60;;;16.00;40.70;;;;;;4818320;28;20215;-75
2021/08/21 05:42:13;;;;;;;8.97;1.23;;;;;;;;;;4835213;28;20609;-76
2021/08/21 05:44:36;;;;;;;10.70;1.40;;;;;;;;;;4803914;28;20254;-77
2021/08/21 05:46:58;;;;;;;15.27;2.03;;;;;;;;;;4838027;28;20544;-75
2021/08/21 05:49:21;;;;;;;11.03;1.40;;;;;;;;;;4838144;28;20220;-76
2021/08/21 05:51:44;;;;;;;10.67;1.40;;;16.70;45.00;;;;;;4837295;28;20672;-76
2021/08/21 05:54:07;;;;;;;15.10;1.97;;;;;;;;;;4819982;28;20208;-76
2021/08/21 05:56:31;;;;;;;4.90;0.73;;;16.90;45.70;;;;;;4820039;28;20685;-77
2021/08/21 05:58:53;;;;;;;19.20;2.40;;;;;;;;;;4837665;28;20210;-75
2021/08/21 06:01:16;;;;;;;15.30;2.07;;;;;;;;;;4835408;28;20191;-75
2021/08/21 06:03:39;;;;;;;11.80;1.73;;;;;;;;;;4820612;28;20510;-78
2021/08/21 06:06:02;;;;;;;15.67;2.20;;;;;;;;;;4836135;28;20249;-76
2021/08/21 06:08:25;;;;;;;7.17;1.23;;;;;;;;;;4813674;28;20208;-77
2021/08/21 06:10:55;;;;;;;16.27;2.10;;;;;;;;;;4816881;28;20583;-75
2021/08/21 06:13:20;;;;;;;10.07;1.33;;;18.00;48.90;;;;;;4814279;28;20211;-75
2021/08/21 06:15:43;;;;;;;9.57;1.33;;;;;;;;;;4818445;28;20254;-78
2021/08/21 06:18:05;;;;;;;14.67;1.87;;;;;;;;;;4794619;28;20193;-76
2021/08/21 06:20:28;;;;;;;8.80;1.23;;;;;;;;;;4803858;28;20600;-77
2021/08/21 06:22:51;;;;;;;11.67;1.67;;;;;;;;;;4830146;28;20245;-78
2021/08/21 06:25:14;;;;;;;7.40;1.03;;;;;;;;;;4826493;28;20215;-76
2021/08/21 06:27:37;;;;;;;10.07;1.40;;;;;;;;;;4827410;28;20188;-77
2021/08/21 06:30:00;;;;;;;13.80;1.87;;;18.60;50.20;;;;;;4831279;28;20190;-77
2021/08/21 06:32:23;;;;;;;9.83;1.37;;;;;;;;;;4809448;28;20196;-76
2021/08/21 06:34:46;;;;;;;7.87;1.33;;;;;;;;;;4832348;28;20187;-75
2021/08/21 06:37:09;;;;;;;4.20;0.77;;;;;;;;;;4828982;28;20191;-75
2021/08/21 06:39:33;;;;;;;6.93;1.17;;;;;;;;;;4826503;28;20269;-74
2021/08/21 06:41:56;;;;;;;12.23;1.93;;;;;;;;;;4805876;28;20206;-75
2021/08/21 06:44:19;;;;;;;6.93;1.10;;;;;;;;;;4807487;28;20307;-75
2021/08/21 06:46:43;;;;;;;10.80;1.60;;;19.20;50.70;;;;;;4826955;28;20652;-75
2021/08/21 06:49:06;;;;;;;16.63;2.20;;;;;;;;;;4797309;28;20224;-74
2021/08/21 06:51:29;;;;;;;8.67;1.20;;;;;;;;;;4827471;28;20200;-78
2021/08/21 06:53:52;;;;;;;15.10;2.10;;;;;;;;;;4809431;28;20605;-75
2021/08/21 06:56:17;;;;;;;9.17;1.40;;;;;;;;;;4807105;28;21006;-75
2021/08/21 06:58:39;;;;;;;11.90;1.73;;;;;;;;;;4827627;28;20264;-73
2021/08/21 07:01:02;;;;;;;16.33;2.40;;;;;;;;;;4806470;28;20773;-77
2021/08/21 07:03:27;;;;;;;10.17;1.53;;;19.80;50.90;;;;;;4808097;28;20190;-74
2021/08/21 07:05:50;;;;;;;8.07;1.23;;;;;;;;;;4826055;28;20564;-75
2021/08/21 07:08:13;;;;;;;6.57;1.03;;;;;;;;;;4794578;28;20209;-75
2021/08/21 07:10:36;;;;;;;8.57;1.37;;;;;;;;;;4824678;28;20493;-79
2021/08/21 07:12:58;;;;;;;13.20;2.13;;;;;;;;;;4830184;28;20248;-74
2021/08/21 07:15:21;;;;;;;13.43;2.13;;;;;;;;;;4822952;28;20249;-74
2021/08/21 07:17:44;;;;;;;12.20;1.90;;;;;;;;;;4824775;28;20192;-75
2021/08/21 07:20:09;;;;;;;14.17;2.17;;;21.10;52.70;;;;;;4826825;28;20209;-76
2021/08/21 07:22:32;;;;;;;7.20;1.17;;;;;;;;;;4812592;28;20202;-74
2021/08/21 07:24:55;;;;;;;17.07;2.40;;;;;;;;;;4809306;28;20215;-75
2021/08/21 07:27:17;;;;;;;8.53;1.27;;;;;;;;;;4840427;28;20671;-74
2021/08/21 07:29:40;;;;;;;11.47;1.60;;;;;;;;;;4849352;28;20260;-74
2021/08/21 07:32:04;;;;;;;11.07;1.60;;;;;;;;;;4820995;28;20245;-76
2021/08/21 07:34:27;;;;;;;9.30;1.33;;;;;;;;;;4828903;28;20196;-75
2021/08/21 07:36:50;;;;;;;11.57;1.63;;;21.60;53.90;;;;;;4815734;28;20207;-74
2021/08/21 07:39:13;;;;;;;8.20;1.17;;;;;;;;;;4810219;28;20223;-75
2021/08/21 07:41:36;;;;;;;8.13;1.17;;;;;;;;;;4822474;28;20664;-75
2021/08/21 07:43:59;;;;;;;15.50;2.03;;;;;;;;;;4821195;28;20265;-76
2021/08/21 07:46:22;;;;;;;6.57;0.97;;;;;;;;;;4835215;28;20207;-76
2021/08/21 07:48:45;;;;;;;10.07;1.47;;;21.90;54.30;;;;;;4810401;28;20211;-74
2021/08/21 07:51:08;;;;;;;15.10;2.07;;;;;;;;;;4808187;28;20263;-77
2021/08/21 07:53:32;;;;;;;22.03;3.17;;;22.10;54.90;;;;;;4818353;28;20611;-76
2021/08/21 07:55:55;;;;;;;21.70;3.10;;;;;;;;;;4834896;28;20585;-74
2021/08/21 07:58:17;;;;;;;14.17;2.07;;;;;;;;;;4827840;28;20195;-78
2021/08/21 08:00:40;;;;;;;67.57;8.80;;;;;;;;;;4802106;28;20311;-75
2021/08/21 08:03:03;;;;;;;18.67;2.50;;;;;;;;;;4820691;28;20576;-80
2021/08/21 08:05:26;;;;;;;9.37;1.33;;;;;;;;;;4837050;28;20184;-75
2021/08/21 08:07:48;;;;;;;4.60;0.70;;;;;;;;;;4815565;28;20193;-75
2021/08/21 08:10:12;;;;;;;8.67;1.27;;;23.50;56.60;;;;;;4815801;28;20750;-81
2021/08/21 08:12:35;;;;;;;6.30;1.00;;;;;;;;;;4857969;28;20231;-79
2021/08/21 08:14:58;;;;;;;14.90;2.20;;;;;;;;;;4844056;28;20210;-74
2021/08/21 08:17:21;;;;;;;10.40;1.50;;;;;;;;;;4843121;28;20197;-75
2021/08/21 08:19:44;;;;;;;15.17;2.07;;;;;;;;;;4797822;28;20260;-74
2021/08/21 08:22:06;;;;;;;14.77;2.10;;;;;;;;;;4858486;28;20768;-74
2021/08/21 08:24:29;;;;;;;11.63;1.63;;;;;;;;;;4858764;28;20250;-74
2021/08/21 08:26:53;;;;;;;14.67;2.00;;;23.70;57.10;;;;;;4834349;28;20696;-78
2021/08/21 08:29:16;;;;;;;7.07;1.00;;;;;;;;;;4789878;28;20612;-79
2021/08/21 08:31:39;;;;;;;8.90;1.27;;;;;;;;;;4813011;28;20656;-85
2021/08/21 08:34:02;;;;;;;12.67;1.83;;;;;;;;;;4857786;28;20178;-84
2021/08/21 08:36:25;;;;;;;6.70;1.00;;;;;;;;;;4847720;28;20193;-82
2021/08/21 08:38:49;;;;;;;11.40;1.60;;;;;;;;;;4840527;28;20267;-85
2021/08/21 08:41:12;;;;;;;12.27;1.70;;;;;;;;;;4852344;28;20615;-85
2021/08/21 08:43:37;;;;;;;8.10;1.20;;;24.20;57.80;;;;;;4811415;28;20193;-82
2021/08/21 08:46:00;;;;;;;17.37;2.37;;;;;;;;;;4817193;28;20643;-81
2021/08/21 08:48:22;;;;;;;9.90;1.40;;;;;;;;;;4836345;28;20562;-82
2021/08/21 08:50:45;;;;;;;10.43;1.43;;;;;;;;;;4805451;28;20242;-84
2021/08/21 08:53:08;;;;;;;6.33;0.87;;;;;;;;;;4803136;28;20210;-77
2021/08/21 08:55:32;;;;;;;9.23;1.27;;;;;;;;;;4802908;28;20200;-82
2021/08/21 08:57:55;;;;;;;17.20;2.13;;;;;;;;;;4820673;28;20218;-82
2021/08/21 09:00:21;;;;;;;9.93;1.27;;;24.60;58.40;;;;;;4816833;28;20222;-83
2021/08/21 09:02:46;;;;;;;13.30;1.70;;;24.30;58.10;;;;;;4829608;28;20198;-83
2021/08/21 09:05:11;;;;;;;7.03;0.97;;;24.20;58.10;;;;;;4814303;28;20199;-73
2021/08/21 09:07:45;;;;;;;10.37;1.40;;;24.00;58.00;;;;;;4805418;28;20246;-79
2021/08/21 09:10:12;;;;;;;19.77;2.53;;;23.80;57.80;;;;;;4815037;28;20188;-81
2021/08/21 09:12:35;;;;;;;8.40;1.13;;;;;;;;;;4833188;28;20714;-82
2021/08/21 09:14:58;;;;;;;20.17;2.50;;;;;;;;;;4799643;28;20295;-84
2021/08/21 09:17:23;;;;;;;14.67;1.93;;;24.40;58.00;;;;;;4812901;28;20195;-85
2021/08/21 09:19:46;;;;;;;7.43;1.07;;;25.10;43.50;;;;;;4831000;28;20222;-83
2021/08/21 09:22:10;;;;;;;7.93;1.10;;;25.70;44.30;;;;;;4830801;28;20195;-75
2021/08/21 09:24:33;;;;;;;17.13;3.77;;;26.70;44.70;;;;;;4828015;28;20194;-76
2021/08/21 09:26:56;;;;;;;302.00;222.33;;;;;;;;;;4810039;28;20206;-76
2021/08/21 09:29:26;;;;;;;437.37;241.50;;;;;;;;;;4798897;28;20200;-76
2021/08/21 09:31:49;;;;;;;456.77;282.37;;;;;;;;;;4826911;28;20262;-77
2021/08/21 09:34:20;;;;;;;476.03;311.83;;;;;;;;;;4808882;28;20235;-76
2021/08/21 09:36:45;;;;;;;495.17;371.87;;;35.90;50.50;;;;;;4836177;28;20241;-74
2021/08/21 09:39:09;;;;;;;503.93;365.17;;;;;;;;;;4818464;28;20298;-76
2021/08/21 09:41:36;;;;;;;475.03;360.03;;;;;;;;;;4808800;28;20230;-74
2021/08/21 09:44:06;;;;;;;482.03;361.20;;;;;;;;;;4829606;28;20237;-78
2021/08/21 09:46:28;;;;;;;15.77;2.10;;;;;;;;;;4831722;28;20534;-74
2021/08/21 09:48:59;;;;;;;14.15;2.13;;;40.20;52.30;;;;;;4823388;28;20228;-75
2021/08/21 09:51:41;;;;;;;17.33;2.92;;;39.30;52.00;;;;;;4827403;28;20191;-75
2021/08/21 09:54:06;;;;;;;29.60;3.70;;;37.50;51.40;;;;;;4810046;28;20234;-77
2021/08/21 09:56:32;;;;;;;15.48;2.05;;;35.40;50.60;;;;;;4808797;28;20698;-74
2021/08/21 09:58:55;;;;;;;20.70;2.78;;;;;;;;;;4794310;28;20592;-74
2021/08/21 10:01:18;;;;;;;17.23;2.33;;;;;;;;;;4806245;28;20243;-77
2021/08/21 10:03:41;;;;;;;10.60;1.48;;;;;;;;;;4823565;28;20179;-79
2021/08/21 10:06:03;;;;;;;26.58;3.38;;;34.20;48.50;;;;;;4805216;28;20187;-80
2021/08/21 10:08:28;;;;;;;16.27;2.28;;;35.90;50.60;;;;;;4827794;28;20194;-74
2021/08/21 10:10:54;;;;;;;20.45;2.70;;;37.80;51.40;;;;;;4811247;28;20218;-75
2021/08/21 10:13:24;;;;;;;16.77;2.28;;;39.70;52.10;;;;;;4832896;28;20666;-74
2021/08/21 10:15:49;;;;;;;15.98;2.17;;;41.10;52.70;;;;;;4819320;28;20183;-81
2021/08/21 10:18:11;;;;;;;16.33;2.13;;;;;;;;;;4811050;28;20223;-89
2021/08/21 10:20:35;;;;;;;16.75;2.28;;;;;;;;;;4834703;28;20493;-76
2021/08/21 10:22:57;;;;;;;23.25;3.10;;;;;;;;;;4802799;28;20599;-75
2021/08/21 10:25:25;;;;;;;15.52;2.05;;;44.40;53.90;;;;;;4832039;28;20182;-76
2021/08/21 10:27:57;;;;;;;18.67;2.55;;;43.40;53.60;;;;;;4821558;28;20297;-83
2021/08/21 10:30:23;;;;;;;13.48;1.83;;;;;;;;;;4810994;28;20203;-77
2021/08/21 10:32:58;;;;;;;14.82;1.98;;;38.60;52.00;;;;;;4802181;28;20610;-81
2021/08/21 10:35:42;;;;;;;13.43;1.88;;;38.00;51.50;;;;;;4827589;28;20191;-84
2021/08/21 10:38:26;;;;;;;26.23;3.45;;;39.30;52.10;;;;;;4789966;28;20184;-83
2021/08/21 10:40:49;;;;;;;14.98;1.98;;;41.00;52.80;;;;;;4803513;28;20637;-79
2021/08/21 10:43:12;;;;;;;13.25;1.83;;;;;;;;;;4813130;28;20191;-86
2021/08/21 10:45:47;;;;;;;19.00;2.53;;;43.40;53.60;;;;;;4833566;28;20202;-77
2021/08/21 10:48:13;;;;;;;11.93;1.67;;;44.80;54.10;;;;;;4797750;28;20195;-86
2021/08/21 10:50:36;;;;;;;13.75;1.95;;;;;;;;;;4835612;28;20228;-82
2021/08/21 10:52:59;;;;;;;24.55;3.40;;;47.70;55.10;;;;;;4845247;28;20590;-78
2021/08/21 10:55:24;;;;;;;13.40;2.95;;;48.40;55.30;;;;;;4823939;28;20199;-76
2021/08/21 10:58:13;;;;;;;8.27;1.48;;;49.10;55.60;;;;;;4830428;28;20249;-84
2021/08/21 11:00:50;;;;;;;53.20;9.40;;;47.20;55.00;;;;;;4803413;28;20261;-81
2021/08/21 11:03:14;;;;;;;6.00;1.20;;;43.70;53.90;;;;;;4818446;28;20171;-84
2021/08/21 11:05:54;;;;;;;8.27;1.55;;;40.40;52.40;;;;;;4828991;28;20198;-84
2021/08/21 11:08:17;;;;;;;8.85;1.70;;;;;;;;;;4819104;28;20215;-77
2021/08/21 11:10:40;;;;;;;11.68;2.15;;;38.00;51.10;;;;;;4824969;28;20222;-82
2021/08/21 11:13:03;;;;;;;15.15;2.95;;;;;;;;;;4836019;28;20210;-82
2021/08/21 11:15:31;;;;;;;7.45;1.50;;;39.00;52.10;;;;;;4811277;28;20195;-83
2021/08/21 11:17:54;;;;;;;10.52;2.05;;;;;;;;;;4818822;28;20203;-82
2021/08/21 11:20:28;;;;;;;12.75;2.40;;;42.50;52.90;;;;;;4815967;28;20223;-79
2021/08/21 11:23:18;;;;;;;7.22;1.42;;;44.40;54.00;;;;;;4814000;28;20252;-86
2021/08/21 11:25:43;;;;;;;9.27;1.92;;;46.20;54.60;;;;;;4811525;28;20611;-82
2021/08/21 11:28:07;;;;;;;17.20;3.13;;;47.30;54.40;;;;;;4824175;28;20213;-89
2021/08/21 11:30:31;;;;;;;7.10;1.48;;;48.10;55.30;;;;;;4817806;28;20217;-75
2021/08/21 11:33:03;;;;;;;14.07;2.60;;;48.10;55.30;;;;;;4814541;28;20223;-77
2021/08/21 11:35:27;;;;;;;10.10;1.90;;;48.50;55.40;;;;;;4801753;28;20646;-77
2021/08/21 11:37:53;;;;;;;8.45;1.55;;;49.60;55.40;;;;;;4807604;28;20179;-78
2021/08/21 11:40:16;;;;;;;8.13;1.58;;;;;;;;;;4821865;28;20241;-86
2021/08/21 11:42:46;;;;;;;13.50;2.45;;;50.70;55.90;;;;;;4804163;28;20266;-83
2021/08/21 11:45:12;;;;;;;10.25;1.88;;;51.50;56.50;;;;;;4790278;28;20625;-76
2021/08/21 11:47:36;;;;;;;9.48;1.73;;;51.50;56.50;;;;;;4804586;28;20234;-83
2021/08/21 11:49:59;;;;;;;15.88;2.65;;;;;;;;;;4810684;28;20191;-84
2021/08/21 11:52:22;;;;;;;10.88;1.83;;;;;;;;;;4821255;28;20677;-88
2021/08/21 11:54:48;;;;;;;11.13;1.95;;;50.20;56.10;;;;;;4827754;28;20264;-83
2021/08/21 11:57:11;;;;;;;10.50;1.83;;;;;;;;;;4835961;28;20240;-82
2021/08/21 11:59:34;;;;;;;9.23;1.58;;;;;;;;;;4807511;28;20707;-80
2021/08/21 12:02:01;;;;;;;12.52;2.13;;;41.30;52.70;;;;;;4807320;28;20187;-84
2021/08/21 12:04:26;;;;;;;10.38;1.80;;;39.20;52.30;;;;;;4820182;28;20605;-75
2021/08/21 12:06:49;;;;;;;9.68;1.60;;;;;;;;;;4821910;28;20249;-76
2021/08/21 12:09:14;;;;;;;9.43;1.55;;;39.50;52.20;;;;;;4811668;28;20331;-77
2021/08/21 12:11:37;;;;;;;11.30;1.70;;;;;;;;;;4830663;28;20276;-77
2021/08/21 12:14:01;;;;;;;19.40;2.72;;;44.60;54.10;;;;;;4810654;28;20254;-77
2021/08/21 12:16:24;;;;;;;12.68;1.77;;;;;;;;;;4805206;28;20183;-78
2021/08/21 12:18:52;;;;;;;12.05;1.73;;;47.90;55.30;;;;;;4816683;28;20188;-78
2021/08/21 12:21:20;;;;;;;11.02;1.70;;;46.30;54.80;;;;;;4816736;28;20273;-74
2021/08/21 12:23:45;;;;;;;11.95;1.75;;;44.40;54.20;;;;;;4821664;28;20234;-78
2021/08/21 12:26:08;;;;;;;18.17;2.38;;;;;;;;;;4793159;28;20677;-77
2021/08/21 12:28:36;;;;;;;16.25;2.15;;;42.80;53.40;;;;;;4837940;28;20317;-78
2021/08/21 12:31:02;;;;;;;25.65;3.20;;;44.40;54.00;;;;;;4829130;28;20188;-80
2021/08/21 12:33:30;;;;;;;18.85;2.45;;;46.80;54.80;;;;;;4821531;28;20260;-77
2021/08/21 12:35:53;;;;;;;32.10;4.07;;;;;;;;;;4820602;28;20199;-80
2021/08/21 12:38:20;;;;;;;20.83;2.72;;;51.00;56.30;;;;;;4819320;28;20232;-77
2021/08/21 12:40:43;;;;;;;15.65;2.22;;;;;;;;;;4817276;28;20546;-75
2021/08/21 12:43:08;;;;;;;29.20;4.03;;;53.90;57.30;;;;;;4828067;28;20249;-78
2021/08/21 12:45:31;;;;;;;19.15;2.75;;;;;;;;;;4803070;28;20230;-76
2021/08/21 12:47:54;;;;;;;33.72;4.40;;;;;;;;;;4824626;28;20260;-76
2021/08/21 12:50:17;;;;;;;25.45;3.40;;;57.00;50.80;;;;;;4822793;28;20194;-78
2021/08/21 12:52:42;;;;;;;19.85;2.75;;;57.50;51.00;;;;;;4828832;28;20832;-76
2021/08/21 12:55:09;;;;;;;34.60;4.43;;;57.80;51.20;;;;;;4814774;28;20237;-80
2021/08/21 12:57:32;;;;;;;21.73;2.88;;;;;;;;;;4831622;28;20194;-75
2021/08/21 13:00:02;;;;;;;28.63;3.63;;;57.10;51.00;;;;;;4797878;28;20187;-73
2021/08/21 13:02:25;;;;;;;18.17;2.58;;;;;;;;;;4809181;28;20775;-75
2021/08/21 13:04:58;;;;;;;20.00;2.72;;;56.40;50.80;;;;;;4806524;28;20623;-79
2021/08/21 13:07:21;;;;;;;24.42;3.33;;;;;;;;;;4786147;28;20203;-78
2021/08/21 13:09:45;;;;;;;21.80;2.95;;;54.40;50.20;;;;;;4807453;28;20217;-77
2021/08/21 13:12:10;;;;;;;26.75;3.63;;;53.60;57.30;;;;;;4794806;28;20238;-77
2021/08/21 13:14:33;;;;;;;21.60;2.92;;;;;;;;;;4808525;28;20354;-81
2021/08/21 13:16:57;;;;;;;33.60;4.35;;;;;;;;;;4806276;28;20203;-77
2021/08/21 13:19:20;;;;;;;22.20;2.92;;;49.30;55.90;;;;;;4825518;28;20190;-77
2021/08/21 13:21:44;;;;;;;22.35;3.00;;;47.80;55.40;;;;;;4811251;28;20214;-78
2021/08/21 13:24:06;;;;;;;29.23;3.80;;;46.10;54.90;;;;;;4810193;28;20178;-77
2021/08/21 13:26:30;;;;;;;20.08;2.72;;;;;;;;;;4809888;28;20591;-76
2021/08/21 13:28:54;;;;;;;25.85;3.42;;;42.80;53.80;;;;;;4812165;28;20252;-77
2021/08/21 13:31:17;;;;;;;14.82;1.95;;;;;;;;;;4813692;28;20712;-78
2021/08/21 13:33:40;;;;;;;18.33;2.45;;;;;;;;;;4796530;28;20915;-75
2021/08/21 13:36:02;;;;;;;27.85;3.65;;;;;;;;;;4817898;28;20562;-76
2021/08/21 13:38:25;;;;;;;16.20;2.15;;;;;;;;;;4823664;28;20190;-76